Virtual Norwegian is not affiliated with Norwegian Air Shuttle in any way.
If you are looking for the real "Norwegian", or you wish to book Norwegian flights, please visit Norwegian.com


We use cookies to ensure you get the best experience on our website.   ACCEPT

ESMS - MMX - Malmoe (Sturup)

General Info Alternate Airport
ICAO: ESMS Elevation: 236 ft ICAO: EKCH
IATA: MMX Country: Sweden IATA: CPH
City: Malmoe Charts: Log in to view charts City: Copenhagen
Name: Sturup Hub: No Name Kastrup
General Info
ICAO: ESMS
IATA: MMX
City: Malmoe
Name: Sturup
Elevation: 236 ft
Country: Sweden
Charts: Log in to view charts
Hub: No
 
Alternate Airport
ICAO: EKCH
IATA: CPH
City: Copenhagen
Name: Kastrup

Weather
240920Z VRB02KT CAVOK 22/14 Q1027
Weather
240920Z VRB02KT CAVOK 22/14 Q1027

Runway Info
11
Length ILS/LOC Heading
800 m N/A 105
17
Length ILS/LOC Course
2800 m 111.90 170
29
Length ILS/LOC Heading
800 m N/A 285
35
Length ILS/LOC Course
2800 m 108.10 350

NOTAMs
NOTAMs currently unavailable.
NOTAMs
NOTAMs currently unavailable

Route map
Airport
Airport (hub)